createdAt,value
2022-12-20T00:01:01.011Z,97966.41
2022-12-20T00:03:27.510Z,97964.72
2022-12-20T00:05:54.864Z,97966.41
2022-12-20T00:08:21.362Z,97971.56
2022-12-20T00:10:47.928Z,97969.00
2022-12-20T00:13:14.576Z,97972.41
2022-12-20T00:15:41.154Z,97964.69
2022-12-20T00:18:07.726Z,97964.69
2022-12-20T00:20:34.403Z,97958.69
2022-12-20T00:23:01.696Z,97953.50
2022-12-20T00:25:28.866Z,97949.22
2022-12-20T00:27:55.521Z,97941.50
2022-12-20T00:30:22.030Z,97937.19
2022-12-20T00:32:48.504Z,97949.22
2022-12-20T00:35:15.035Z,97941.47
2022-12-20T00:37:41.791Z,97939.78
2022-12-20T00:40:08.861Z,97939.75
2022-12-20T00:42:35.399Z,97937.16
2022-12-20T00:45:02.078Z,97948.34
2022-12-20T00:47:28.620Z,97936.31
2022-12-20T00:49:55.126Z,97944.03
2022-12-20T00:52:22.300Z,97945.75
2022-12-20T00:54:48.788Z,97935.47
2022-12-20T00:57:15.317Z,97937.19
2022-12-20T00:59:41.851Z,97950.06
2022-12-20T01:02:08.538Z,97954.38
2022-12-20T01:04:35.239Z,97948.38
2022-12-20T01:07:02.619Z,97949.22
2022-12-20T01:09:29.142Z,97942.38
2022-12-20T01:11:55.701Z,97946.66
2022-12-20T01:14:22.195Z,97943.22
2022-12-20T01:16:48.924Z,97945.81
2022-12-20T01:19:17.668Z,97943.22
2022-12-20T01:21:44.880Z,97937.19
2022-12-20T01:24:13.338Z,97936.34
2022-12-20T01:26:40.058Z,97950.06
2022-12-20T01:29:06.666Z,97947.47
2022-12-20T01:31:33.277Z,97956.94
2022-12-20T01:34:00.107Z,97961.22
2022-12-20T01:36:29.827Z,97962.94
2022-12-20T01:39:02.877Z,97953.50
2022-12-20T01:41:30.911Z,97955.22
2022-12-20T01:44:01.124Z,97952.66
2022-12-20T01:46:30.082Z,97951.78
2022-12-20T01:49:02.969Z,97950.91
2022-12-20T01:51:32.104Z,97950.06
2022-12-20T01:54:04.739Z,97950.06
2022-12-20T01:56:31.617Z,97943.19
2022-12-20T01:58:58.982Z,97929.47
2022-12-20T02:01:25.976Z,97938.06
2022-12-20T02:03:55.305Z,97936.31
2022-12-20T02:06:24.707Z,97936.34
2022-12-20T02:08:54.837Z,97926.03
2022-12-20T02:11:26.967Z,97923.44
2022-12-20T02:14:06.332Z,97926.03
2022-12-20T02:16:42.664Z,97915.75
2022-12-20T02:19:46.437Z,97915.75
2022-12-20T02:22:37.796Z,97906.31
2022-12-20T02:25:14.852Z,97903.72
2022-12-20T02:27:55.201Z,97887.44
2022-12-20T02:30:24.027Z,97889.16
2022-12-20T02:32:59.405Z,97887.44
2022-12-20T02:35:32.070Z,97892.56
2022-12-20T02:38:05.019Z,97896.88
2022-12-20T02:40:40.172Z,97908.03
2022-12-20T02:43:28.935Z,97910.63
2022-12-20T02:45:58.707Z,97899.47
2022-12-20T02:48:28.979Z,97897.72
2022-12-20T02:50:59.095Z,97902.03
2022-12-20T02:53:26.447Z,97902.88
2022-12-20T02:56:01.641Z,97898.59
2022-12-20T02:58:34.749Z,97896.84
2022-12-20T03:01:08.855Z,97908.88
2022-12-20T03:03:36.711Z,97899.44
2022-12-20T03:06:03.713Z,97893.41
2022-12-20T03:08:30.524Z,97901.13
2022-12-20T03:10:57.117Z,97907.13
2022-12-20T03:13:24.968Z,97900.28
2022-12-20T03:15:51.878Z,97889.09
2022-12-20T03:18:18.787Z,97888.25
2022-12-20T03:20:45.312Z,97896.81
2022-12-20T03:23:11.857Z,97885.66
2022-12-20T03:25:38.431Z,97885.66
2022-12-20T03:28:04.956Z,97886.50
2022-12-20T03:30:31.567Z,97888.25
2022-12-20T03:32:58.222Z,97880.53
2022-12-20T03:35:24.760Z,97888.25
2022-12-20T03:37:51.262Z,97889.13
2022-12-20T03:40:17.880Z,97896.84
2022-12-20T03:42:44.407Z,97893.41
2022-12-20T03:45:11.228Z,97900.28
2022-12-20T03:47:37.947Z,97892.53
2022-12-20T03:50:06.887Z,97878.81
2022-12-20T03:52:33.969Z,97887.41
2022-12-20T03:55:00.848Z,97869.38
2022-12-20T03:57:27.417Z,97865.94
2022-12-20T03:59:54.480Z,97877.97
2022-12-20T04:02:22.752Z,97884.00
2022-12-20T04:04:49.752Z,97881.41
2022-12-20T04:07:16.669Z,97885.69
2022-12-20T04:09:43.215Z,97883.13
2022-12-20T04:12:09.773Z,97890.00
2022-12-20T04:14:37.421Z,97888.28
2022-12-20T04:17:04.526Z,97890.00
2022-12-20T04:19:31.276Z,97886.59
2022-12-20T04:22:04.739Z,97875.44
2022-12-20T04:24:31.865Z,97880.56
2022-12-20T04:26:58.354Z,97882.28
2022-12-20T04:29:24.932Z,97880.56
2022-12-20T04:31:51.504Z,97870.25
2022-12-20T04:34:18.076Z,97868.53
2022-12-20T04:36:44.730Z,97865.09
2022-12-20T04:39:11.294Z,97861.69
2022-12-20T04:41:37.877Z,97856.50
2022-12-20T04:44:04.544Z,97849.63
2022-12-20T04:46:31.109Z,97853.06
2022-12-20T04:48:59.309Z,97845.31
2022-12-20T04:51:28.023Z,97847.06
2022-12-20T04:53:55.705Z,97843.63
2022-12-20T04:56:31.160Z,97836.75
2022-12-20T04:58:58.961Z,97832.44
2022-12-20T05:01:26.357Z,97841.88
2022-12-20T05:03:53.426Z,97846.19
2022-12-20T05:06:20.074Z,97849.63
2022-12-20T05:08:46.863Z,97856.47
2022-12-20T05:11:13.441Z,97850.47
2022-12-20T05:13:40.156Z,97854.75
2022-12-20T05:16:07.266Z,97852.19
2022-12-20T05:18:33.985Z,97850.44
2022-12-20T05:21:20.436Z,97840.97
2022-12-20T05:24:05.790Z,97850.41
2022-12-20T05:26:36.625Z,97851.25
2022-12-20T05:29:03.986Z,97843.50
2022-12-20T05:31:31.175Z,97846.06
2022-12-20T05:33:57.746Z,97859.00
2022-12-20T05:36:24.268Z,97847.81
2022-12-20T05:38:50.871Z,97845.25
2022-12-20T05:41:17.423Z,97836.63
2022-12-20T05:43:43.886Z,97841.81
2022-12-20T05:46:10.824Z,97833.22
2022-12-20T05:48:37.603Z,97830.63
2022-12-20T05:51:04.615Z,97824.66
2022-12-20T05:53:31.259Z,97822.06
2022-12-20T05:55:59.421Z,97817.75
2022-12-20T05:58:25.932Z,97811.75
2022-12-20T06:00:52.514Z,97816.88
2022-12-20T06:03:19.332Z,97818.59
2022-12-20T06:05:46.735Z,97824.56
2022-12-20T06:08:14.010Z,97820.28
2022-12-20T06:10:41.968Z,97808.25
2022-12-20T06:13:09.642Z,97815.97
2022-12-20T06:15:36.452Z,97823.72
2022-12-20T06:18:03.685Z,97816.88
2022-12-20T06:20:30.206Z,97807.44
2022-12-20T06:22:56.727Z,97810.91
2022-12-20T06:25:23.242Z,97809.19
2022-12-20T06:27:49.789Z,97815.25
2022-12-20T06:30:16.804Z,97812.69
2022-12-20T06:32:43.552Z,97804.09
2022-12-20T06:35:10.100Z,97811.88
2022-12-20T06:37:36.905Z,97801.56
2022-12-20T06:40:05.398Z,97804.16
2022-12-20T06:42:31.986Z,97795.59
2022-12-20T06:44:58.539Z,97807.63
2022-12-20T06:47:25.113Z,97805.88
2022-12-20T06:49:54.768Z,97815.34
2022-12-20T06:52:21.346Z,97800.66
2022-12-20T06:54:53.421Z,97809.09
2022-12-20T06:57:24.215Z,97808.72
2022-12-20T06:59:50.719Z,97808.09
2022-12-20T07:02:19.935Z,97803.00
2022-12-20T07:04:48.840Z,97793.59
2022-12-20T07:07:21.426Z,97799.66
2022-12-20T07:09:53.587Z,97787.63
2022-12-20T07:12:26.058Z,97779.91
2022-12-20T07:14:58.952Z,97785.06
2022-12-20T07:17:30.050Z,97772.16
2022-12-20T07:19:56.620Z,97772.09
2022-12-20T07:22:23.102Z,97777.19
2022-12-20T07:24:52.102Z,97792.63
2022-12-20T07:27:19.025Z,97794.28
2022-12-20T07:29:45.533Z,97808.81
2022-12-20T07:32:13.527Z,97812.16
2022-12-20T07:34:40.603Z,97813.78
2022-12-20T07:37:08.598Z,97821.44
2022-12-20T07:39:35.186Z,97816.22
2022-12-20T07:42:02.159Z,97803.25
2022-12-20T07:44:29.103Z,97802.28
2022-12-20T07:46:55.649Z,97800.50
2022-12-20T07:49:22.244Z,97797.81
2022-12-20T07:51:53.619Z,97791.50
2022-12-20T07:54:26.187Z,97785.31
2022-12-20T07:56:58.707Z,97790.31
2022-12-20T07:59:29.249Z,97789.34
2022-12-20T08:02:00.871Z,97786.56
2022-12-20T08:04:31.169Z,97789.00
2022-12-20T08:07:01.283Z,97788.06
2022-12-20T08:09:34.697Z,97795.63
2022-12-20T08:12:01.319Z,97793.75
2022-12-20T08:14:27.900Z,97798.03
2022-12-20T08:16:54.469Z,97789.44
2022-12-20T08:19:23.304Z,97793.59
2022-12-20T08:21:52.033Z,97796.94
2022-12-20T08:24:18.726Z,97781.38
2022-12-20T08:26:45.263Z,97787.44
2022-12-20T08:29:11.797Z,97777.69
2022-12-20T08:31:44.424Z,97780.38
2022-12-20T08:34:14.290Z,97781.91
2022-12-20T08:36:41.063Z,97782.84
2022-12-20T08:39:08.049Z,97780.13
2022-12-20T08:41:36.765Z,97777.56
2022-12-20T08:44:04.823Z,97775.91
2022-12-20T08:46:31.351Z,97778.19
2022-12-20T08:48:57.921Z,97778.72
2022-12-20T08:51:24.668Z,97777.69
2022-12-20T08:53:53.200Z,97785.25
2022-12-20T08:56:20.180Z,97778.28
2022-12-20T08:58:47.142Z,97771.59
2022-12-20T09:01:16.228Z,97769.91
2022-12-20T09:03:43.673Z,97764.78
2022-12-20T09:06:20.192Z,97767.53
2022-12-20T09:08:47.721Z,97774.53
2022-12-20T09:11:15.899Z,97765.66
2022-12-20T09:13:44.848Z,97762.88
2022-12-20T09:16:13.919Z,97759.69
2022-12-20T09:18:41.260Z,97759.44
2022-12-20T09:21:09.386Z,97756.06
2022-12-20T09:23:37.083Z,97756.31
2022-12-20T09:26:11.128Z,97754.03
2022-12-20T09:28:37.685Z,97748.50
2022-12-20T09:31:06.601Z,97749.75
2022-12-20T09:33:34.921Z,97751.28
2022-12-20T09:36:02.394Z,97749.25
2022-12-20T09:38:31.176Z,97748.53
2022-12-20T09:41:06.705Z,97747.97
2022-12-20T09:43:34.090Z,97750.69
2022-12-20T09:46:03.969Z,97751.53
2022-12-20T09:48:35.403Z,97757.19
2022-12-20T09:51:28.249Z,97745.34
2022-12-20T09:54:36.002Z,97741.66
2022-12-20T09:57:13.087Z,97732.13
2022-12-20T09:59:47.539Z,97723.91
2022-12-20T10:02:58.296Z,97716.81
2022-12-20T10:05:57.760Z,97707.47
2022-12-20T10:08:42.458Z,97711.31
2022-12-20T10:11:39.582Z,97706.75
2022-12-20T10:14:27.213Z,97711.31
2022-12-20T10:17:09.092Z,97714.91
2022-12-20T10:19:56.475Z,97709.88
2022-12-20T10:22:29.107Z,97707.00
2022-12-20T10:25:22.928Z,97702.63
2022-12-20T10:27:53.529Z,97702.16
2022-12-20T10:30:22.914Z,97692.41
2022-12-20T10:32:52.699Z,97694.44
2022-12-20T10:35:40.492Z,97681.00
2022-12-20T10:38:12.518Z,97684.41
2022-12-20T10:41:20.225Z,97684.41
2022-12-20T10:43:43.193Z,97680.41
2022-12-20T10:46:11.554Z,97682.66
2022-12-20T10:48:41.185Z,97675.00
2022-12-20T10:51:15.334Z,97677.59
2022-12-20T10:53:51.387Z,97672.72
2022-12-20T10:56:22.012Z,97671.31
2022-12-20T10:59:22.936Z,97680.09
2022-12-20T11:01:50.603Z,97672.00
2022-12-20T11:04:30.196Z,97668.81
2022-12-20T11:06:58.033Z,97662.63
2022-12-20T11:09:36.268Z,97656.75
2022-12-20T11:12:13.612Z,97650.09
2022-12-20T11:14:42.625Z,97650.25
2022-12-20T11:17:22.653Z,97647.84
2022-12-20T11:20:08.863Z,97633.47
2022-12-20T11:22:54.319Z,97637.88
2022-12-20T11:25:30.877Z,97644.00
2022-12-20T11:28:19.332Z,97644.84
2022-12-20T11:31:00.780Z,97646.06
2022-12-20T11:33:27.272Z,97640.13
2022-12-20T11:36:15.466Z,97630.75
2022-12-20T11:38:46.284Z,97620.72
2022-12-20T11:41:27.817Z,97612.69
2022-12-20T11:44:33.078Z,97611.91
2022-12-20T11:47:21.249Z,97613.31
2022-12-20T11:50:09.724Z,97618.03
2022-12-20T11:52:42.293Z,97615.63
2022-12-20T11:55:29.822Z,97617.91
2022-12-20T11:58:21.512Z,97609.13
2022-12-20T12:00:54.885Z,97604.28
2022-12-20T12:03:32.917Z,97603.88
2022-12-20T12:06:16.301Z,97592.31
2022-12-20T12:08:55.516Z,97582.38
2022-12-20T12:14:47.647Z,97582.59
2022-12-20T12:17:24.889Z,97573.97
2022-12-20T12:19:57.113Z,97562.72
2022-12-20T12:22:33.115Z,97570.44
2022-12-20T12:25:04.583Z,97560.09
2022-12-20T12:27:31.333Z,97559.41
2022-12-20T12:29:58.908Z,97551.56
2022-12-20T12:32:36.889Z,97549.31
2022-12-20T12:35:13.347Z,97542.44
2022-12-20T12:37:55.652Z,97545.41
2022-12-20T12:40:52.318Z,97538.03
2022-12-20T12:43:29.241Z,97532.53
2022-12-20T12:46:00.031Z,97530.00
2022-12-20T12:49:01.755Z,97541.09
2022-12-20T12:51:32.941Z,97533.72
2022-12-20T12:54:16.632Z,97541.03
2022-12-20T12:56:51.023Z,97550.69
2022-12-20T12:59:20.279Z,97541.78
2022-12-20T13:02:06.389Z,97540.22
2022-12-20T13:04:55.642Z,97547.97
2022-12-20T13:07:35.164Z,97534.00
2022-12-20T13:10:24.890Z,97542.94
2022-12-20T13:12:52.541Z,97543.84
2022-12-20T13:15:22.105Z,97534.13
2022-12-20T13:17:48.622Z,97541.38
2022-12-20T13:20:39.498Z,97526.06
2022-12-20T13:23:08.867Z,97525.72
2022-12-20T13:25:36.984Z,97517.97
2022-12-20T13:28:19.146Z,97512.06
2022-12-20T13:30:47.276Z,97502.34
2022-12-20T13:33:24.092Z,97503.72
2022-12-20T13:35:59.891Z,97496.97
2022-12-20T13:38:48.202Z,97506.91
2022-12-20T13:41:35.547Z,97502.94
2022-12-20T13:44:14.528Z,97489.44
2022-12-20T13:46:57.146Z,97500.03
2022-12-20T13:49:36.651Z,97507.25
2022-12-20T13:52:12.286Z,97509.75
2022-12-20T13:54:44.181Z,97499.94
2022-12-20T13:57:17.243Z,97506.28
2022-12-20T13:59:59.985Z,97499.50
2022-12-20T14:02:36.392Z,97499.63
2022-12-20T14:05:13.240Z,97497.91
2022-12-20T14:07:40.216Z,97497.97
2022-12-20T14:10:27.606Z,97503.03
2022-12-20T14:12:55.351Z,97502.78
2022-12-20T14:15:25.049Z,97506.00
2022-12-20T14:17:51.588Z,97507.66
2022-12-20T14:20:38.442Z,97501.75
2022-12-20T14:23:11.580Z,97508.66
2022-12-20T14:25:43.494Z,97512.25
2022-12-20T14:28:26.453Z,97516.09
2022-12-20T14:30:53.766Z,97505.94
2022-12-20T14:33:38.064Z,97505.94
2022-12-20T14:36:16.801Z,97499.63
2022-12-20T14:38:45.768Z,97503.19
2022-12-20T14:41:38.405Z,97493.16
2022-12-20T14:44:07.770Z,97491.59
2022-12-20T14:46:35.983Z,97478.84
2022-12-20T14:49:30.281Z,97477.28
2022-12-20T14:52:12.128Z,97476.41
2022-12-20T14:55:09.126Z,97471.41
2022-12-20T14:57:36.697Z,97476.53
2022-12-20T15:00:18.344Z,97483.22
2022-12-20T15:02:52.925Z,97484.13
2022-12-20T15:05:38.674Z,97482.41
2022-12-20T15:08:10.927Z,97479.06
2022-12-20T15:10:37.793Z,97493.72
2022-12-20T15:13:05.089Z,97477.09
2022-12-20T15:15:31.691Z,97466.72
2022-12-20T15:17:58.212Z,97462.41
2022-12-20T15:20:24.738Z,97454.59
2022-12-20T15:22:51.271Z,97446.88
2022-12-20T15:25:18.048Z,97436.53
2022-12-20T15:27:44.696Z,97394.31
2022-12-20T15:30:14.418Z,97384.75
2022-12-20T15:32:54.662Z,97376.06
2022-12-20T15:35:22.497Z,97383.94
2022-12-20T15:37:49.061Z,97388.34
2022-12-20T15:40:15.624Z,97410.16
2022-12-20T15:42:43.330Z,97382.63
2022-12-20T15:45:14.493Z,97387.09
2022-12-20T15:47:41.026Z,97388.66
2022-12-20T15:50:08.522Z,97399.06
2022-12-20T15:52:35.088Z,97392.41
2022-12-20T15:55:01.661Z,97397.09
2022-12-20T15:57:28.883Z,97420.53
2022-12-20T16:00:01.831Z,97436.34
2022-12-20T16:02:31.007Z,97414.78
2022-12-20T16:04:58.837Z,97406.31
2022-12-20T16:07:25.571Z,97420.13
2022-12-20T16:09:52.198Z,97428.75
2022-12-20T16:12:26.926Z,97418.53
2022-12-20T16:14:53.592Z,97418.84
2022-12-20T16:17:20.157Z,97412.94
2022-12-20T16:19:46.761Z,97410.44
2022-12-20T16:22:23.885Z,97413.19
2022-12-20T16:24:51.726Z,97403.72
2022-12-20T16:27:18.421Z,97397.66
2022-12-20T16:29:45.530Z,97385.50
2022-12-20T16:32:17.540Z,97387.34
2022-12-20T16:34:45.311Z,97386.22
2022-12-20T16:37:12.047Z,97378.50
2022-12-20T16:39:38.649Z,97384.56
2022-12-20T16:42:13.029Z,97399.19
2022-12-20T16:44:42.729Z,97398.28
2022-12-20T16:47:09.913Z,97393.84
2022-12-20T16:49:36.861Z,97395.44
2022-12-20T16:52:04.444Z,97387.72
2022-12-20T16:54:31.970Z,97393.69
2022-12-20T16:56:58.526Z,97394.38
2022-12-20T16:59:25.851Z,97408.19
2022-12-20T17:01:55.619Z,97404.81
2022-12-20T17:04:23.034Z,97403.09
2022-12-20T17:06:49.709Z,97406.63
2022-12-20T17:09:17.615Z,97398.00
2022-12-20T17:11:45.127Z,97404.06
2022-12-20T17:14:14.387Z,97403.22
2022-12-20T17:16:41.557Z,97398.16
2022-12-20T17:19:10.809Z,97393.13
2022-12-20T17:24:26.468Z,97393.28
2022-12-20T17:26:53.030Z,97387.31
2022-12-20T17:29:20.489Z,97389.97
2022-12-20T17:31:48.112Z,97393.41
2022-12-20T17:34:20.778Z,97402.03
2022-12-20T17:36:48.766Z,97384.84
2022-12-20T17:39:15.732Z,97379.63
2022-12-20T17:41:43.298Z,97383.16
2022-12-20T17:44:20.620Z,97376.34
2022-12-20T17:46:47.643Z,97374.69
2022-12-20T17:49:15.390Z,97368.75
2022-12-20T17:51:42.733Z,97379.19
2022-12-20T17:54:18.476Z,97371.53
2022-12-20T17:56:45.370Z,97383.69
2022-12-20T17:59:13.750Z,97366.47
2022-12-20T18:01:41.692Z,97371.69
2022-12-20T18:04:11.403Z,97359.53
2022-12-20T18:06:39.910Z,97374.09
2022-12-20T18:09:21.402Z,97380.00
2022-12-20T18:11:48.434Z,97382.50
2022-12-20T18:14:15.915Z,97380.72
2022-12-20T18:16:42.870Z,97373.88
2022-12-20T18:19:15.459Z,97370.53
2022-12-20T18:21:41.966Z,97367.16
2022-12-20T18:24:11.981Z,97356.75
2022-12-20T18:26:38.483Z,97354.13
2022-12-20T18:29:05.018Z,97344.63
2022-12-20T18:31:34.285Z,97355.69
2022-12-20T18:34:01.970Z,97359.88
2022-12-20T18:36:34.693Z,97353.06
2022-12-20T18:39:05.319Z,97352.16
2022-12-20T18:41:32.454Z,97342.66
2022-12-20T18:44:01.074Z,97341.00
2022-12-20T18:46:28.368Z,97336.72
2022-12-20T18:48:57.201Z,97340.22
2022-12-20T18:51:27.164Z,97340.28
2022-12-20T18:53:55.752Z,97333.41
2022-12-20T18:56:28.765Z,97336.91
2022-12-20T18:58:56.964Z,97333.59
2022-12-20T19:01:26.152Z,97332.88
2022-12-20T19:03:53.912Z,97339.06
2022-12-20T19:06:21.588Z,97346.97
2022-12-20T19:08:48.864Z,97357.47
2022-12-20T19:11:18.608Z,97351.59
2022-12-20T19:13:45.497Z,97348.22
2022-12-20T19:16:13.189Z,97347.50
2022-12-20T19:18:41.110Z,97343.28
2022-12-20T19:21:10.729Z,97343.38
2022-12-20T19:23:39.033Z,97338.34
2022-12-20T19:26:08.657Z,97337.47
2022-12-20T19:28:36.223Z,97337.44
2022-12-20T19:31:14.231Z,97341.06
2022-12-20T19:33:46.396Z,97326.50
2022-12-20T19:36:18.247Z,97314.50
2022-12-20T19:38:47.335Z,97313.78
2022-12-20T19:41:14.588Z,97306.84
2022-12-20T19:43:41.918Z,97295.63
2022-12-20T19:46:09.681Z,97290.34
2022-12-20T19:48:37.072Z,97280.69
2022-12-20T19:51:06.566Z,97272.75
2022-12-20T19:53:33.108Z,97276.91
2022-12-20T19:55:59.662Z,97299.94
2022-12-20T19:58:26.167Z,97315.31
2022-12-20T20:00:52.973Z,97320.34
2022-12-20T20:03:20.574Z,97329.69
2022-12-20T20:05:47.663Z,97333.00
2022-12-20T20:08:15.305Z,97307.84
2022-12-20T20:10:44.903Z,97291.38
2022-12-20T20:13:11.869Z,97304.31
2022-12-20T20:15:38.481Z,97316.25
2022-12-20T20:18:05.226Z,97305.00
2022-12-20T20:20:32.911Z,97305.91
2022-12-20T20:22:59.447Z,97299.88
2022-12-20T20:25:26.379Z,97300.91
2022-12-20T20:27:52.910Z,97298.53
2022-12-20T20:30:19.526Z,97297.13
2022-12-20T20:32:46.193Z,97284.34
2022-12-20T20:35:12.732Z,97284.56
2022-12-20T20:37:39.883Z,97273.44
2022-12-20T20:40:07.243Z,97282.16
2022-12-20T20:42:33.747Z,97291.72
2022-12-20T20:45:00.253Z,97282.22
2022-12-20T20:47:26.773Z,97276.19
2022-12-20T20:49:53.275Z,97283.75
2022-12-20T20:52:20.027Z,97281.91
2022-12-20T20:54:46.657Z,97284.28
2022-12-20T20:57:13.372Z,97287.53
2022-12-20T20:59:40.116Z,97279.63
2022-12-20T21:02:07.131Z,97267.44
2022-12-20T21:04:33.754Z,97272.66
2022-12-20T21:07:00.427Z,97281.28
2022-12-20T21:09:26.974Z,97278.69
2022-12-20T21:11:53.636Z,97261.34
2022-12-20T21:14:36.446Z,97256.94
2022-12-20T21:17:06.820Z,97237.81
2022-12-20T21:19:33.317Z,97248.88
2022-12-20T21:22:01.040Z,97257.34
2022-12-20T21:24:27.614Z,97247.78
2022-12-20T21:26:55.273Z,97233.28
2022-12-20T21:29:22.618Z,97225.47
2022-12-20T21:31:49.221Z,97222.00
2022-12-20T21:34:15.737Z,97211.72
2022-12-20T21:36:42.679Z,97223.91
2022-12-20T21:39:12.475Z,97236.97
2022-12-20T21:41:39.717Z,97233.63
2022-12-20T21:44:06.217Z,97232.75
2022-12-20T21:46:33.007Z,97250.09
2022-12-20T21:48:59.906Z,97258.78
2022-12-20T21:51:27.651Z,97254.47
2022-12-20T21:53:56.525Z,97262.22
2022-12-20T21:56:25.161Z,97259.63
2022-12-20T21:58:52.037Z,97260.47
2022-12-20T22:01:21.061Z,97263.88
2022-12-20T22:03:52.224Z,97259.50
2022-12-20T22:06:19.106Z,97263.88
2022-12-20T22:08:45.905Z,97260.56
2022-12-20T22:11:18.352Z,97242.56
2022-12-20T22:13:46.302Z,97240.84
2022-12-20T22:16:17.988Z,97233.25
2022-12-20T22:18:49.850Z,97227.13
2022-12-20T22:21:17.856Z,97226.28
2022-12-20T22:23:44.743Z,97227.13
2022-12-20T22:26:16.740Z,97219.38
2022-12-20T22:28:49.840Z,97212.59
2022-12-20T22:31:17.671Z,97201.56
2022-12-20T22:33:44.898Z,97211.13
2022-12-20T22:36:13.507Z,97199.91
2022-12-20T22:38:40.824Z,97185.34
2022-12-20T22:41:10.371Z,97177.56
2022-12-20T22:43:38.648Z,97165.34
2022-12-20T22:46:05.683Z,97170.06
2022-12-20T22:48:32.303Z,97191.50
2022-12-20T22:51:04.521Z,97231.34
2022-12-20T22:53:34.870Z,97246.06
2022-12-20T22:56:02.350Z,97264.88
2022-12-20T22:58:30.382Z,97252.91
2022-12-20T23:01:02.649Z,97270.97
2022-12-20T23:03:30.315Z,97283.78
2022-12-20T23:05:59.425Z,97288.88
2022-12-20T23:08:27.883Z,97302.69
2022-12-20T23:11:13.010Z,97310.28
2022-12-20T23:13:58.833Z,97299.84
2022-12-20T23:16:25.939Z,97285.88
2022-12-20T23:18:56.779Z,97295.25
2022-12-20T23:21:42.343Z,97295.06
2022-12-20T23:24:10.243Z,97301.13
2022-12-20T23:26:38.420Z,97299.31
2022-12-20T23:29:07.004Z,97282.97
2022-12-20T23:31:33.909Z,97279.38
2022-12-20T23:34:01.768Z,97281.09
2022-12-20T23:36:29.152Z,97286.22
2022-12-20T23:38:56.783Z,97279.44
2022-12-20T23:41:23.759Z,97274.25
2022-12-20T23:43:50.432Z,97271.72
2022-12-20T23:46:18.937Z,97275.34
2022-12-20T23:48:45.560Z,97277.19
2022-12-20T23:51:12.482Z,97247.06
2022-12-20T23:53:39.348Z,97250.53
2022-12-20T23:56:18.188Z,97246.13
2022-12-20T23:58:46.228Z,97247.16
